Time;durP1;ratioP1;P1;durP2;ratioP2;P2;SDS_P1;SDS_P2;PMS_P1;PMS_P2;Temp;Humidity;BMP_temperature;BMP_pressure;BME280_temperature;BME280_humidity;BME280_pressure;Samples;Min_cycle;Max_cycle;Signal;HPM_P1;HPM_P2
2023/09/05 00:00:14;;;;;;;13.45;7.93;;;15.50;99.90;;;;;;5038083;28;20048;-64
2023/09/05 00:02:45;;;;;;;10.70;8.40;;;15.50;99.90;;;;;;5043054;28;20079;-64
2023/09/05 00:05:11;;;;;;;13.02;8.05;;;15.50;99.90;;;;;;5042731;28;20452;-64
2023/09/05 00:07:39;;;;;;;11.07;8.52;;;15.50;99.90;;;;;;5042706;28;20041;-64
2023/09/05 00:10:07;;;;;;;13.90;7.95;;;15.50;99.90;;;;;;5044422;28;20047;-65
2023/09/05 00:12:33;;;;;;;14.13;8.00;;;15.50;99.90;;;;;;5041521;28;20059;-65
2023/09/05 00:14:59;;;;;;;13.90;8.70;;;15.50;99.90;;;;;;5042485;28;20037;-65
2023/09/05 00:17:25;;;;;;;12.27;8.48;;;15.50;99.90;;;;;;5042874;28;20115;-65
2023/09/05 00:19:51;;;;;;;14.93;9.02;;;15.50;99.90;;;;;;5043195;28;20048;-65
2023/09/05 00:22:18;;;;;;;11.80;8.68;;;15.50;99.90;;;;;;5044108;28;20025;-66
2023/09/05 00:24:44;;;;;;;12.77;9.25;;;15.50;99.90;;;;;;5042565;28;20036;-65
2023/09/05 00:27:10;;;;;;;14.90;10.02;;;15.40;99.90;;;;;;5041083;28;20053;-66
2023/09/05 00:29:36;;;;;;;12.05;9.07;;;15.40;99.90;;;;;;5047283;28;20051;-65
2023/09/05 00:32:03;;;;;;;15.35;10.32;;;15.30;99.90;;;;;;5045217;28;20124;-65
2023/09/05 00:34:31;;;;;;;13.13;10.07;;;15.30;99.90;;;;;;5046380;28;20045;-65
2023/09/05 00:37:00;;;;;;;14.10;10.10;;;15.30;99.90;;;;;;5046431;28;20045;-66
2023/09/05 00:39:27;;;;;;;14.88;9.88;;;15.20;99.90;;;;;;5046071;28;20525;-66
2023/09/05 00:41:54;;;;;;;14.85;10.43;;;15.20;99.90;;;;;;5043423;28;20061;-65
2023/09/05 00:44:20;;;;;;;14.60;10.68;;;15.20;99.90;;;;;;5046827;28;20083;-66
2023/09/05 00:46:46;;;;;;;15.35;10.40;;;15.20;99.90;;;;;;5044867;28;20040;-67
2023/09/05 00:49:15;;;;;;;13.52;10.20;;;15.20;99.90;;;;;;5036666;28;20064;-65
2023/09/05 00:51:45;;;;;;;15.00;10.23;;;15.10;99.90;;;;;;5045599;28;20076;-66
2023/09/05 00:54:12;;;;;;;15.00;10.52;;;15.10;99.90;;;;;;5045181;28;20056;-67
2023/09/05 00:56:38;;;;;;;15.50;10.48;;;15.10;99.90;;;;;;5045679;28;20052;-65
2023/09/05 00:59:05;;;;;;;14.88;10.95;;;15.10;99.90;;;;;;5044871;28;20045;-65
2023/09/05 01:01:31;;;;;;;15.95;10.98;;;15.10;99.90;;;;;;5044544;28;20141;-66
2023/09/05 01:03:57;;;;;;;15.25;10.93;;;15.00;99.90;;;;;;5046114;28;20127;-65
2023/09/05 01:06:47;;;;;;;14.45;10.52;;;15.00;99.90;;;;;;5044850;28;20416;-66
2023/09/05 01:09:29;;;;;;;14.90;11.23;;;15.00;99.90;;;;;;5046453;28;20045;-65
2023/09/05 01:11:56;;;;;;;13.20;10.45;;;15.00;99.90;;;;;;5042703;28;20047;-66
2023/09/05 01:14:21;;;;;;;18.67;11.68;;;15.00;99.90;;;;;;5044843;28;20567;-65
2023/09/05 01:16:47;;;;;;;15.32;11.05;;;15.00;99.90;;;;;;5046564;28;20041;-65
2023/09/05 01:19:15;;;;;;;16.25;11.43;;;14.90;99.90;;;;;;5043277;28;20476;-65
2023/09/05 01:21:58;;;;;;;17.67;11.13;;;14.90;99.90;;;;;;5045344;28;20044;-66
2023/09/05 01:24:24;;;;;;;16.83;11.40;;;14.90;99.90;;;;;;5045088;28;20052;-67
2023/09/05 01:26:51;;;;;;;16.30;11.70;;;15.00;99.90;;;;;;5044878;28;20045;-65
2023/09/05 01:29:26;;;;;;;17.17;12.25;;;14.90;99.90;;;;;;5060978;28;20091;-65
2023/09/05 01:31:53;;;;;;;18.27;11.88;;;14.90;99.90;;;;;;5045194;28;20068;-69
2023/09/05 01:34:19;;;;;;;18.48;12.45;;;14.90;99.90;;;;;;5045282;28;20033;-66
2023/09/05 01:36:44;;;;;;;21.33;12.38;;;14.90;99.90;;;;;;5044981;28;20519;-66
2023/09/05 01:39:10;;;;;;;18.23;12.27;;;14.90;99.90;;;;;;5045421;28;20052;-65
2023/09/05 01:41:35;;;;;;;14.82;10.02;;;14.80;99.90;;;;;;5059634;28;20132;-66
2023/09/05 01:44:01;;;;;;;15.85;11.35;;;14.80;99.90;;;;;;5044492;28;20033;-65
2023/09/05 01:46:26;;;;;;;16.50;10.65;;;14.80;99.90;;;;;;5046063;28;20044;-65
2023/09/05 01:48:52;;;;;;;15.32;11.38;;;14.70;99.90;;;;;;5046072;28;20713;-66
2023/09/05 01:51:18;;;;;;;16.80;11.23;;;14.70;99.90;;;;;;5043973;28;20045;-66
2023/09/05 01:53:46;;;;;;;16.38;10.98;;;14.70;99.90;;;;;;5044726;28;20068;-66
2023/09/05 01:56:12;;;;;;;15.68;11.30;;;14.60;99.90;;;;;;5049305;28;20119;-66
2023/09/05 01:58:37;;;;;;;15.23;11.18;;;14.50;99.90;;;;;;5043843;28;20523;-66
2023/09/05 02:01:03;;;;;;;18.67;11.55;;;14.50;99.90;;;;;;5044163;28;20168;-65
2023/09/05 02:03:29;;;;;;;15.77;11.35;;;14.50;99.90;;;;;;5046138;28;20048;-65
2023/09/05 02:05:55;;;;;;;15.50;12.10;;;14.40;99.90;;;;;;5044103;28;20068;-65
2023/09/05 02:08:20;;;;;;;16.35;11.45;;;14.40;99.90;;;;;;5044084;28;20052;-65
2023/09/05 02:10:46;;;;;;;15.23;11.75;;;14.40;99.90;;;;;;5059454;28;20044;-65
2023/09/05 02:13:12;;;;;;;18.08;10.80;;;14.40;99.90;;;;;;5043469;28;20076;-65
2023/09/05 02:15:38;;;;;;;17.55;11.52;;;14.30;99.90;;;;;;5043495;28;20585;-65
2023/09/05 02:18:10;;;;;;;18.50;12.57;;;14.30;99.90;;;;;;5045521;28;20049;-65
2023/09/05 02:20:39;;;;;;;16.83;11.68;;;14.30;99.90;;;;;;5043309;28;20128;-65
2023/09/05 02:23:05;;;;;;;14.70;11.23;;;14.30;99.90;;;;;;5045329;28;20416;-65
2023/09/05 02:25:31;;;;;;;17.38;11.90;;;14.30;99.90;;;;;;5043587;28;20045;-65
2023/09/05 02:27:56;;;;;;;20.98;12.00;;;14.30;99.90;;;;;;5041152;28;20037;-66
2023/09/05 02:30:22;;;;;;;15.93;11.57;;;14.20;99.90;;;;;;5044050;28;20033;-66
2023/09/05 02:32:54;;;;;;;19.88;14.00;;;14.20;99.90;;;;;;5045059;28;20053;-66
2023/09/05 02:35:22;;;;;;;18.80;13.45;;;14.20;99.90;;;;;;5044645;28;20083;-66
2023/09/05 02:37:52;;;;;;;20.67;14.27;;;14.20;99.90;;;;;;5060041;28;20041;-66
2023/09/05 02:40:18;;;;;;;20.60;14.43;;;14.10;99.90;;;;;;5060905;28;20051;-66
2023/09/05 02:42:44;;;;;;;20.17;13.52;;;14.10;99.90;;;;;;5058353;28;20037;-66
2023/09/05 02:45:10;;;;;;;18.60;12.95;;;14.10;99.90;;;;;;5043799;28;20049;-66
2023/09/05 02:47:36;;;;;;;19.95;13.25;;;14.00;99.90;;;;;;5060817;28;20049;-66
2023/09/05 02:50:02;;;;;;;21.10;14.02;;;14.00;99.90;;;;;;5042359;28;20056;-66
2023/09/05 02:52:29;;;;;;;20.15;13.65;;;14.00;99.90;;;;;;5044922;28;20249;-66
2023/09/05 02:54:54;;;;;;;22.75;15.27;;;14.00;99.90;;;;;;5043290;28;20496;-66
2023/09/05 02:57:21;;;;;;;23.00;15.25;;;13.90;99.90;;;;;;5041664;28;20037;-65
2023/09/05 02:59:47;;;;;;;21.10;15.35;;;13.90;99.90;;;;;;5042961;28;20056;-65
2023/09/05 03:02:12;;;;;;;21.50;14.65;;;13.90;99.90;;;;;;5043762;28;20057;-65
2023/09/05 03:04:39;;;;;;;25.23;16.63;;;13.90;99.90;;;;;;5043509;28;20045;-66
2023/09/05 03:07:05;;;;;;;24.17;16.05;;;13.90;99.90;;;;;;5033294;28;20147;-66
2023/09/05 03:09:32;;;;;;;20.08;14.00;;;13.80;99.90;;;;;;5060109;28;20044;-66
2023/09/05 03:11:58;;;;;;;18.17;13.45;;;13.70;99.90;;;;;;5043051;28;20040;-65
2023/09/05 03:14:24;;;;;;;20.55;14.10;;;13.70;99.90;;;;;;5043257;28;20142;-65
2023/09/05 03:16:50;;;;;;;20.83;14.82;;;13.70;99.90;;;;;;5043120;28;20037;-66
2023/09/05 03:19:15;;;;;;;18.13;13.35;;;13.70;99.90;;;;;;5043839;28;20041;-66
2023/09/05 03:21:41;;;;;;;19.33;14.50;;;13.70;99.90;;;;;;5043354;28;20040;-66
2023/09/05 03:24:06;;;;;;;21.42;15.45;;;13.70;99.90;;;;;;5044633;28;20366;-66
2023/09/05 03:26:32;;;;;;;23.65;16.58;;;13.60;99.90;;;;;;5043010;28;20037;-67
2023/09/05 03:28:59;;;;;;;25.33;17.35;;;13.60;99.90;;;;;;5042701;28;20090;-67
2023/09/05 03:31:28;;;;;;;24.92;17.45;;;13.60;99.90;;;;;;5043012;28;20072;-67
2023/09/05 03:33:54;;;;;;;24.25;15.57;;;13.60;99.90;;;;;;5026995;28;20094;-67
2023/09/05 03:36:21;;;;;;;24.92;15.48;;;13.60;99.90;;;;;;5044243;28;20564;-68
2023/09/05 03:38:47;;;;;;;18.08;13.55;;;13.60;99.90;;;;;;5044303;28;20116;-67
2023/09/05 03:41:13;;;;;;;21.95;14.77;;;13.60;99.90;;;;;;5057087;28;20105;-68
2023/09/05 03:43:39;;;;;;;20.75;15.32;;;13.50;99.90;;;;;;5042515;28;20671;-67
2023/09/05 03:46:04;;;;;;;22.60;15.60;;;13.50;99.90;;;;;;5059564;28;20532;-68
2023/09/05 03:48:30;;;;;;;23.02;15.80;;;13.50;99.90;;;;;;5041643;28;20041;-68
2023/09/05 03:50:55;;;;;;;33.30;17.60;;;13.40;99.90;;;;;;5058892;28;20508;-67
2023/09/05 03:53:21;;;;;;;27.38;16.90;;;13.40;99.90;;;;;;5043028;28;20079;-67
2023/09/05 03:55:47;;;;;;;25.33;17.13;;;13.40;99.90;;;;;;5041455;28;20492;-66
2023/09/05 03:58:13;;;;;;;22.95;16.70;;;13.40;99.90;;;;;;5041811;28;20127;-66
2023/09/05 04:00:39;;;;;;;19.60;15.10;;;13.40;99.90;;;;;;5042746;28;20135;-66
2023/09/05 04:03:05;;;;;;;21.30;16.48;;;13.40;99.90;;;;;;5046192;28;20115;-66
2023/09/05 04:05:32;;;;;;;21.65;15.70;;;13.40;99.90;;;;;;5047349;28;20049;-66
2023/09/05 04:07:58;;;;;;;21.02;15.63;;;13.40;99.90;;;;;;5047574;28;20037;-66
2023/09/05 04:10:23;;;;;;;19.80;15.13;;;13.40;99.90;;;;;;5046218;28;20411;-66
2023/09/05 04:12:52;;;;;;;22.08;15.40;;;13.40;99.90;;;;;;5038877;28;20688;-65
2023/09/05 04:15:21;;;;;;;23.13;14.30;;;13.40;99.90;;;;;;5062852;28;20136;-66
2023/09/05 04:17:48;;;;;;;19.00;14.32;;;13.40;99.90;;;;;;5046533;28;20432;-66
2023/09/05 04:20:14;;;;;;;20.08;14.93;;;13.40;99.90;;;;;;5045889;28;20401;-66
2023/09/05 04:22:40;;;;;;;21.38;14.93;;;13.40;99.90;;;;;;5046342;28;20339;-66
2023/09/05 04:25:08;;;;;;;20.40;14.95;;;13.40;99.90;;;;;;5045273;28;20557;-66
2023/09/05 04:27:34;;;;;;;22.27;16.83;;;13.40;99.90;;;;;;5044316;28;20593;-66
2023/09/05 04:30:00;;;;;;;26.08;17.95;;;13.40;99.90;;;;;;5045964;28;20642;-66
2023/09/05 04:32:32;;;;;;;23.60;17.45;;;13.30;99.90;;;;;;5047845;28;20591;-67
2023/09/05 04:35:00;;;;;;;24.55;17.92;;;13.30;99.90;;;;;;5063186;28;20059;-67
2023/09/05 04:37:26;;;;;;;25.73;17.83;;;13.30;99.90;;;;;;5045158;28;20129;-67
2023/09/05 04:39:52;;;;;;;24.05;17.65;;;13.30;99.90;;;;;;5046077;28;20416;-67
2023/09/05 04:42:18;;;;;;;25.20;17.80;;;13.20;99.90;;;;;;5046125;28;20196;-67
2023/09/05 04:44:43;;;;;;;25.02;18.20;;;13.20;99.90;;;;;;5045892;28;20459;-67
2023/09/05 04:47:29;;;;;;;25.08;18.02;;;13.20;99.90;;;;;;5046296;28;20044;-67
2023/09/05 04:49:57;;;;;;;26.10;17.92;;;13.20;99.90;;;;;;5045912;28;20052;-68
2023/09/05 04:52:26;;;;;;;27.48;17.83;;;13.20;99.90;;;;;;5046051;28;20534;-67
2023/09/05 04:54:53;;;;;;;26.92;18.42;;;13.20;99.90;;;;;;5047231;28;20066;-68
2023/09/05 04:57:19;;;;;;;28.50;19.75;;;13.20;99.90;;;;;;5042792;28;20044;-67
2023/09/05 04:59:47;;;;;;;33.15;19.15;;;13.30;99.90;;;;;;5044979;28;20063;-66
2023/09/05 05:02:17;;;;;;;24.52;18.13;;;13.30;99.90;;;;;;5062618;28;20168;-66
2023/09/05 05:04:43;;;;;;;30.35;18.95;;;13.30;99.90;;;;;;5032535;28;20107;-66
2023/09/05 05:07:09;;;;;;;24.92;18.08;;;13.30;99.90;;;;;;5044421;28;20040;-66
2023/09/05 05:09:35;;;;;;;25.13;18.75;;;13.20;99.90;;;;;;5044403;28;20452;-66
2023/09/05 05:12:01;;;;;;;27.33;18.75;;;13.20;99.90;;;;;;5029583;28;20102;-66
2023/09/05 05:14:28;;;;;;;26.77;19.15;;;13.20;99.90;;;;;;5043993;28;20481;-67
2023/09/05 05:16:53;;;;;;;30.50;19.02;;;13.30;99.90;;;;;;5040029;28;20118;-67
2023/09/05 05:19:22;;;;;;;22.27;17.15;;;13.40;99.90;;;;;;5035757;28;20508;-68
2023/09/05 05:21:49;;;;;;;23.02;17.42;;;13.60;99.90;;;;;;5042389;28;20448;-67
2023/09/05 05:24:15;;;;;;;23.90;16.38;;;13.70;99.90;;;;;;5026353;28;20116;-66
2023/09/05 05:26:41;;;;;;;23.17;15.43;;;13.90;99.90;;;;;;5045325;28;20552;-65
2023/09/05 05:29:06;;;;;;;30.45;16.40;;;14.00;99.90;;;;;;5044647;28;20119;-65
2023/09/05 05:31:33;;;;;;;22.40;15.00;;;14.20;99.90;;;;;;5045550;28;20129;-67
2023/09/05 05:33:59;;;;;;;23.67;15.82;;;14.30;99.90;;;;;;5046685;28;20072;-65
2023/09/05 05:36:25;;;;;;;22.42;15.15;;;14.50;99.90;;;;;;5028727;28;20492;-65
2023/09/05 05:38:51;;;;;;;20.95;15.93;;;14.60;99.90;;;;;;5051704;28;20063;-65
2023/09/05 05:41:16;;;;;;;23.15;16.08;;;14.60;99.90;;;;;;5042804;28;20044;-66
2023/09/05 05:43:42;;;;;;;20.45;15.63;;;14.70;99.90;;;;;;5058996;28;20538;-65
2023/09/05 05:46:09;;;;;;;21.95;14.05;;;14.70;99.90;;;;;;5043177;28;20064;-65
2023/09/05 05:48:35;;;;;;;20.75;13.23;;;14.80;99.90;;;;;;5043122;28;20080;-65
2023/09/05 05:51:01;;;;;;;17.63;14.32;;;15.00;99.90;;;;;;5038509;28;20043;-65
2023/09/05 05:53:28;;;;;;;18.63;13.20;;;15.10;99.90;;;;;;5044603;28;20051;-65
2023/09/05 05:55:54;;;;;;;17.35;12.43;;;15.40;99.90;;;;;;5041580;28;20036;-67
2023/09/05 05:58:20;;;;;;;19.77;13.75;;;15.60;99.90;;;;;;5043848;28;20072;-65
2023/09/05 06:00:52;;;;;;;22.70;14.48;;;15.70;99.90;;;;;;5036680;28;20068;-67
2023/09/05 06:03:18;;;;;;;19.45;13.70;;;15.90;99.90;;;;;;5044379;28;20079;-66
2023/09/05 06:05:48;;;;;;;17.88;14.10;;;16.10;99.90;;;;;;5044589;28;20040;-65
2023/09/05 06:08:14;;;;;;;17.83;12.90;;;16.20;99.90;;;;;;5044749;28;20039;-65
2023/09/05 06:10:40;;;;;;;18.98;13.68;;;16.30;99.90;;;;;;5044077;28;20041;-66
2023/09/05 06:13:06;;;;;;;19.52;13.20;;;16.60;99.90;;;;;;5043871;28;20049;-66
2023/09/05 06:15:32;;;;;;;16.30;12.65;;;16.70;99.90;;;;;;5043251;28;20041;-65
2023/09/05 06:17:58;;;;;;;15.07;11.55;;;16.80;99.90;;;;;;5044478;28;20044;-65
2023/09/05 06:20:24;;;;;;;17.80;12.38;;;17.10;99.90;;;;;;5043745;28;20047;-65
2023/09/05 06:22:49;;;;;;;15.57;11.60;;;17.40;99.90;;;;;;5060574;28;20037;-64
2023/09/05 06:25:16;;;;;;;16.92;11.38;;;17.90;99.90;;;;;;5041447;28;20067;-65
2023/09/05 06:27:43;;;;;;;17.20;11.50;;;18.10;99.90;;;;;;5041467;28;20033;-64
2023/09/05 06:30:12;;;;;;;17.48;11.27;;;18.00;99.90;;;;;;5043649;28;20661;-63
2023/09/05 06:32:38;;;;;;;17.65;11.68;;;17.90;99.90;;;;;;5052569;28;20068;-64
2023/09/05 06:35:08;;;;;;;18.75;12.00;;;17.90;99.90;;;;;;5045507;28;20036;-64
2023/09/05 06:37:35;;;;;;;16.48;11.30;;;18.00;99.90;;;;;;5045138;28;20110;-65
2023/09/05 06:40:01;;;;;;;17.92;12.43;;;18.00;99.90;;;;;;5045567;28;20028;-62
2023/09/05 06:42:27;;;;;;;15.77;10.93;;;18.10;99.90;;;;;;5041159;28;20041;-63
2023/09/05 06:44:52;;;;;;;13.93;10.30;;;18.20;99.90;;;;;;5045308;28;20044;-65
2023/09/05 06:47:18;;;;;;;14.98;10.68;;;18.30;99.90;;;;;;5044970;28;20080;-67
2023/09/05 06:49:44;;;;;;;16.27;10.45;;;18.40;99.90;;;;;;5044070;28;20047;-63
2023/09/05 06:52:09;;;;;;;15.73;10.80;;;18.50;99.90;;;;;;5045309;28;20037;-65
2023/09/05 06:54:35;;;;;;;14.10;10.65;;;18.60;99.90;;;;;;5042474;28;20051;-63
2023/09/05 06:57:01;;;;;;;16.48;10.35;;;18.70;99.90;;;;;;5043252;28;20393;-64
2023/09/05 06:59:27;;;;;;;15.80;11.23;;;18.80;99.90;;;;;;5043284;28;20496;-66
2023/09/05 07:01:53;;;;;;;11.90;9.70;;;18.90;99.90;;;;;;5043117;28;20077;-66
2023/09/05 07:04:18;;;;;;;13.45;9.93;;;19.00;99.90;;;;;;5042591;28;20677;-66
2023/09/05 07:06:45;;;;;;;12.98;9.88;;;19.10;99.90;;;;;;5043526;28;20099;-65
2023/09/05 07:09:11;;;;;;;14.70;9.88;;;19.10;99.90;;;;;;5044813;28;20447;-66
2023/09/05 07:11:36;;;;;;;13.32;10.07;;;19.20;99.90;;;;;;5040834;28;20036;-63
2023/09/05 07:14:03;;;;;;;17.15;10.00;;;19.20;99.90;;;;;;5043105;28;20083;-64
2023/09/05 07:16:29;;;;;;;15.88;10.02;;;19.10;99.90;;;;;;5042916;28;20083;-63
2023/09/05 07:18:55;;;;;;;13.82;10.32;;;19.10;99.90;;;;;;5042638;28;20049;-65
2023/09/05 07:21:21;;;;;;;15.27;10.25;;;19.00;99.90;;;;;;5043577;28;20055;-63
2023/09/05 07:23:46;;;;;;;15.00;10.02;;;19.10;99.90;;;;;;5043526;28;20195;-63
2023/09/05 07:26:12;;;;;;;15.57;9.82;;;19.30;99.90;;;;;;5047669;28;20575;-63
2023/09/05 07:28:38;;;;;;;12.25;9.43;;;19.40;99.90;;;;;;5044153;28;20325;-64
2023/09/05 07:31:04;;;;;;;13.05;9.48;;;19.50;99.90;;;;;;5043649;28;20525;-65
2023/09/05 07:33:30;;;;;;;14.43;9.85;;;19.60;99.90;;;;;;5043462;28;20033;-65
2023/09/05 07:35:55;;;;;;;13.05;10.23;;;19.70;99.90;;;;;;5038887;28;20042;-67
2023/09/05 07:38:21;;;;;;;14.98;9.48;;;19.70;99.90;;;;;;5028947;28;20580;-63
2023/09/05 07:40:48;;;;;;;15.95;10.88;;;19.80;99.90;;;;;;5026772;28;20045;-66
2023/09/05 07:43:14;;;;;;;13.82;9.90;;;19.90;99.90;;;;;;5029447;28;20037;-65
2023/09/05 07:45:40;;;;;;;12.13;9.82;;;19.90;99.90;;;;;;5047197;28;20475;-65
2023/09/05 07:48:09;;;;;;;12.98;9.23;;;20.10;99.90;;;;;;5029867;28;20136;-64
2023/09/05 07:50:35;;;;;;;16.13;9.02;;;20.20;99.90;;;;;;5047425;28;20040;-63
2023/09/05 07:53:01;;;;;;;13.82;9.45;;;20.20;99.90;;;;;;5046478;28;20525;-63
2023/09/05 07:55:27;;;;;;;14.93;9.43;;;20.30;99.90;;;;;;5047026;28;20055;-64
2023/09/05 07:57:52;;;;;;;13.02;8.63;;;20.40;99.90;;;;;;5044109;28;20099;-64
2023/09/05 08:00:19;;;;;;;13.02;8.73;;;20.40;99.90;;;;;;5045598;28;20053;-63
2023/09/05 08:02:45;;;;;;;15.23;8.93;;;20.50;99.90;;;;;;5030113;28;20049;-64
2023/09/05 08:05:11;;;;;;;15.23;8.98;;;20.50;99.90;;;;;;5047327;28;20047;-64
2023/09/05 08:07:38;;;;;;;13.65;9.55;;;20.50;99.90;;;;;;5045338;28;20037;-64
2023/09/05 08:10:05;;;;;;;11.65;8.98;;;20.60;99.90;;;;;;5046812;28;20043;-64
2023/09/05 08:12:31;;;;;;;16.35;10.00;;;20.50;99.90;;;;;;5044763;28;20438;-63
2023/09/05 08:14:57;;;;;;;13.32;10.13;;;20.50;99.90;;;;;;5046087;28;20099;-65
2023/09/05 08:17:22;;;;;;;15.23;9.25;;;20.60;99.90;;;;;;5047211;28;20045;-64
2023/09/05 08:19:48;;;;;;;13.00;8.88;;;20.70;99.90;;;;;;5030376;28;20076;-62
2023/09/05 08:22:14;;;;;;;14.07;8.77;;;21.10;99.90;;;;;;5046454;28;20315;-64
2023/09/05 08:24:40;;;;;;;12.90;9.02;;;21.30;99.90;;;;;;5042516;28;20080;-65
2023/09/05 08:27:05;;;;;;;11.63;8.88;;;21.40;99.90;;;;;;5052082;28;20037;-64
2023/09/05 08:29:32;;;;;;;12.57;8.20;;;21.30;99.90;;;;;;5046293;28;20049;-64
2023/09/05 08:31:59;;;;;;;12.02;8.55;;;21.10;99.90;;;;;;5047379;28;20813;-65
2023/09/05 08:34:24;;;;;;;15.35;7.95;;;21.10;99.90;;;;;;5046002;28;20079;-64
2023/09/05 08:36:50;;;;;;;11.45;7.75;;;21.20;99.90;;;;;;5047297;28;20420;-62
2023/09/05 08:39:16;;;;;;;12.65;7.55;;;21.50;99.90;;;;;;5029751;28;20041;-62
2023/09/05 08:41:42;;;;;;;11.07;7.78;;;21.90;99.90;;;;;;5045320;28;20040;-64
2023/09/05 08:44:08;;;;;;;11.52;7.50;;;22.20;99.90;;;;;;5047232;28;20116;-66
2023/09/05 08:46:35;;;;;;;11.32;7.05;;;22.30;99.90;;;;;;5045035;28;20473;-66
2023/09/05 08:49:01;;;;;;;11.32;7.30;;;22.30;99.90;;;;;;5045688;28;20036;-64
2023/09/05 08:51:34;;;;;;;11.63;8.10;;;22.40;99.90;;;;;;5028456;28;20041;-66
2023/09/05 08:54:01;;;;;;;12.50;7.30;;;22.40;99.90;;;;;;5046018;28;20140;-66
2023/09/05 08:56:28;;;;;;;10.68;7.65;;;22.30;99.90;;;;;;5043623;28;20075;-63
2023/09/05 08:58:56;;;;;;;10.65;7.00;;;22.30;99.90;;;;;;5045303;28;20053;-67
2023/09/05 09:01:24;;;;;;;11.88;7.43;;;22.30;99.90;;;;;;5045380;28;20053;-64
2023/09/05 09:03:51;;;;;;;8.90;6.28;;;22.30;99.90;;;;;;5045057;28;20107;-63
2023/09/05 09:06:21;;;;;;;9.55;6.38;;;22.30;99.90;;;;;;5045733;28;20037;-65
2023/09/05 09:08:46;;;;;;;9.30;6.35;;;22.30;99.90;;;;;;5047015;28;20238;-66
2023/09/05 09:11:12;;;;;;;10.85;6.20;;;22.50;99.90;;;;;;5043704;28;20052;-65
2023/09/05 09:13:41;;;;;;;11.30;6.72;;;22.50;99.90;;;;;;5047356;28;20056;-64
2023/09/05 09:16:06;;;;;;;10.40;6.65;;;22.60;99.90;;;;;;5028366;28;20056;-65
2023/09/05 09:18:33;;;;;;;11.02;6.72;;;22.70;99.90;;;;;;5046620;28;20037;-65
2023/09/05 09:21:03;;;;;;;10.50;6.88;;;22.70;99.90;;;;;;5045433;28;20071;-66
2023/09/05 09:23:33;;;;;;;9.05;6.10;;;22.70;99.90;;;;;;5044687;28;20045;-64
2023/09/05 09:26:00;;;;;;;12.68;6.05;;;22.70;99.90;;;;;;5043471;28;20042;-63
2023/09/05 09:28:28;;;;;;;10.52;6.80;;;22.80;99.90;;;;;;5044628;28;20037;-62
2023/09/05 09:31:02;;;;;;;10.60;6.22;;;22.80;99.90;;;;;;5046597;28;20083;-64
2023/09/05 09:33:30;;;;;;;;;;;22.80;99.90;;;;;;5028270;28;20041;-63
2023/09/05 09:36:04;;;;;;;9.50;5.65;;;22.80;99.90;;;;;;5044954;28;19921;-65
2023/09/05 09:38:31;;;;;;;9.45;5.78;;;22.90;99.90;;;;;;5044938;28;20051;-62
2023/09/05 09:41:00;;;;;;;9.32;5.85;;;22.90;99.90;;;;;;5027249;28;20123;-64
2023/09/05 09:43:27;;;;;;;10.70;5.63;;;22.90;99.90;;;;;;5041460;28;20068;-62
2023/09/05 09:45:53;;;;;;;9.50;4.90;;;23.00;99.90;;;;;;5026767;28;20191;-62
2023/09/05 09:48:21;;;;;;;12.45;5.47;;;23.10;99.90;;;;;;5044736;28;20140;-64
2023/09/05 09:50:48;;;;;;;12.43;5.07;;;23.20;99.90;;;;;;5045077;28;20125;-65
2023/09/05 09:53:22;;;;;;;12.65;4.65;;;23.30;99.90;;;;;;5046121;28;20051;-64
2023/09/05 09:55:49;;;;;;;;;;;23.50;99.90;;;;;;5045007;28;20045;-63
2023/09/05 09:58:18;;;;;;;8.50;4.75;;;23.60;99.90;;;;;;5043540;28;19920;-62
2023/09/05 10:00:45;;;;;;;9.07;4.45;;;23.70;99.90;;;;;;5045670;28;20551;-63
2023/09/05 10:03:13;;;;;;;10.00;4.60;;;23.90;99.90;;;;;;5044620;28;20487;-66
2023/09/05 10:05:41;;;;;;;8.20;4.25;;;24.10;99.90;;;;;;5045641;28;20068;-66
2023/09/05 10:08:09;;;;;;;8.73;5.20;;;24.10;99.90;;;;;;5045230;28;20132;-63
2023/09/05 10:10:41;;;;;;;8.75;4.47;;;24.00;99.90;;;;;;5045033;28;20040;-64
2023/09/05 10:13:09;;;;;;;10.05;5.10;;;24.00;99.90;;;;;;5042780;28;20500;-65
2023/09/05 10:15:39;;;;;;;9.57;4.80;;;24.00;99.90;;;;;;5027873;28;20041;-63
2023/09/05 10:18:12;;;;;;;7.55;4.68;;;24.10;99.90;;;;;;5026559;28;20128;-64
2023/09/05 10:20:40;;;;;;;8.73;4.53;;;24.20;99.90;;;;;;5046173;28;20496;-63
2023/09/05 10:23:06;;;;;;;9.13;4.40;;;24.30;99.90;;;;;;5043589;28;20049;-62
2023/09/05 10:25:38;;;;;;;8.85;4.40;;;24.50;99.90;;;;;;5044520;28;20119;-64
2023/09/05 10:28:05;;;;;;;7.20;4.07;;;24.50;99.90;;;;;;5043286;28;20052;-63
2023/09/05 10:30:40;;;;;;;9.50;4.38;;;24.60;99.90;;;;;;5043890;28;20116;-62
2023/09/05 10:33:09;;;;;;;5.80;3.53;;;24.60;99.90;;;;;;5043514;28;20037;-64
2023/09/05 10:35:34;;;;;;;8.43;3.80;;;24.60;99.90;;;;;;5046141;28;20104;-64
2023/09/05 10:38:03;;;;;;;6.63;3.30;;;24.60;99.90;;;;;;5043421;28;20472;-65
2023/09/05 10:40:38;;;;;;;8.95;3.65;;;24.70;99.90;;;;;;5024090;28;20034;-64
2023/09/05 10:43:05;;;;;;;7.15;3.70;;;24.80;99.90;;;;;;5040202;28;20047;-64
2023/09/05 10:45:33;;;;;;;8.20;4.00;;;24.90;99.90;;;;;;5060282;28;20048;-62
2023/09/05 10:48:15;;;;;;;8.77;3.78;;;25.00;99.90;;;;;;5027494;28;20120;-62
2023/09/05 10:51:06;;;;;;;6.35;3.00;;;25.10;99.90;;;;;;5059612;28;20036;-62
2023/09/05 10:53:33;;;;;;;8.95;3.42;;;25.30;99.90;;;;;;5043764;28;20049;-61
2023/09/05 10:55:59;;;;;;;7.38;3.22;;;25.30;99.90;;;;;;5059268;28;20040;-63
2023/09/05 10:58:38;;;;;;;7.55;3.20;;;25.30;99.90;;;;;;5044892;28;20051;-64
2023/09/05 11:01:32;;;;;;;6.95;3.03;;;25.40;99.90;;;;;;5042777;28;20245;-63
2023/09/05 11:04:07;;;;;;;7.17;3.03;;;25.60;99.90;;;;;;5024271;28;20460;-63
2023/09/05 11:06:37;;;;;;;7.80;3.55;;;25.70;99.90;;;;;;5040298;28;20053;-67
2023/09/05 11:09:06;;;;;;;7.97;3.00;;;25.70;99.90;;;;;;5040820;28;20049;-62
2023/09/05 11:11:35;;;;;;;7.30;2.88;;;25.80;99.90;;;;;;5039569;28;20498;-66
2023/09/05 11:14:01;;;;;;;10.85;3.17;;;25.90;99.90;;;;;;5026547;28;20148;-63
2023/09/05 11:16:27;;;;;;;7.30;2.70;;;26.00;99.90;;;;;;5044272;28;20123;-65
2023/09/05 11:18:56;;;;;;;6.95;2.40;;;26.10;99.90;;;;;;5043333;28;20055;-64
2023/09/05 11:21:23;;;;;;;6.55;2.42;;;26.20;99.90;;;;;;5026923;28;20044;-61
2023/09/05 11:23:51;;;;;;;5.35;2.70;;;26.30;99.90;;;;;;5027045;28;20045;-62
2023/09/05 11:26:18;;;;;;;8.30;2.70;;;26.30;99.90;;;;;;5024688;28;20073;-62
2023/09/05 11:28:45;;;;;;;5.78;2.50;;;26.30;99.90;;;;;;5044534;28;20048;-63
2023/09/05 11:31:11;;;;;;;6.18;2.22;;;26.30;99.70;;;;;;5042918;28;20102;-61
2023/09/05 11:33:37;;;;;;;9.10;4.20;;;26.30;99.00;;;;;;5043274;28;20048;-63
2023/09/05 11:36:07;;;;;;;5.13;2.72;;;26.30;99.00;;;;;;5043047;28;20055;-63
2023/09/05 11:38:48;;;;;;;4.90;2.30;;;26.20;98.80;;;;;;5043790;28;20049;-65
2023/09/05 11:41:15;;;;;;;5.78;2.45;;;26.30;99.40;;;;;;5041379;28;20048;-63
2023/09/05 11:43:48;;;;;;;14.20;2.40;;;26.30;98.40;;;;;;5042588;28;20045;-64
2023/09/05 11:46:16;;;;;;;7.70;3.08;;;26.30;98.50;;;;;;5043481;28;20546;-64
2023/09/05 11:48:44;;;;;;;5.53;2.50;;;26.40;98.30;;;;;;5043430;28;20135;-63
2023/09/05 11:51:12;;;;;;;5.60;2.45;;;26.40;98.60;;;;;;5043646;28;20041;-65
2023/09/05 11:53:37;;;;;;;5.95;2.53;;;26.50;98.30;;;;;;5043479;28;20127;-63
2023/09/05 11:56:04;;;;;;;6.03;2.60;;;26.60;98.30;;;;;;5040770;28;20136;-63
2023/09/05 11:58:30;;;;;;;5.63;2.45;;;26.60;98.20;;;;;;5043479;28;20415;-63
2023/09/05 12:00:57;;;;;;;5.65;2.38;;;26.70;99.40;;;;;;5026333;28;20583;-64
2023/09/05 12:03:23;;;;;;;8.65;2.80;;;26.80;98.80;;;;;;5042194;28;20061;-63
2023/09/05 12:05:51;;;;;;;6.38;2.65;;;26.80;98.20;;;;;;5043202;28;20045;-63
2023/09/05 12:08:21;;;;;;;5.70;2.38;;;26.80;98.40;;;;;;5042732;28;20620;-60
2023/09/05 12:10:51;;;;;;;7.05;2.50;;;26.90;98.50;;;;;;5041738;28;20037;-63
2023/09/05 12:13:18;;;;;;;6.88;2.60;;;26.90;98.40;;;;;;5042603;28;20062;-64
2023/09/05 12:15:45;;;;;;;6.95;2.53;;;26.90;98.90;;;;;;5034374;28;20132;-64
2023/09/05 12:18:25;;;;;;;5.75;2.30;;;27.00;98.90;;;;;;5039599;28;20045;-63
2023/09/05 12:21:00;;;;;;;5.57;2.17;;;27.00;98.60;;;;;;5040039;28;20041;-64
2023/09/05 12:23:26;;;;;;;5.28;2.60;;;27.00;98.70;;;;;;5029643;28;20526;-63
2023/09/05 12:25:54;;;;;;;7.72;2.25;;;27.00;98.00;;;;;;5062660;28;20769;-65
2023/09/05 12:28:22;;;;;;;4.50;2.10;;;27.00;97.40;;;;;;5044773;28;20041;-67
2023/09/05 12:30:49;;;;;;;5.88;2.38;;;27.10;98.50;;;;;;5046542;28;20124;-63
2023/09/05 12:33:16;;;;;;;4.13;1.83;;;27.10;98.90;;;;;;5048052;28;20128;-64